sensor_id;sensor_type;location;lat;lon;timestamp;P1;durP1;ratioP1;P2;durP2;ratioP2
63965;SDS011;50151;52.030;5.350;2022-08-01T00:02:27;6.80;;;3.00;;
63965;SDS011;50151;52.030;5.350;2022-08-01T00:04:54;7.95;;;3.28;;
63965;SDS011;50151;52.030;5.350;2022-08-01T00:07:21;7.28;;;2.92;;
63965;SDS011;50151;52.030;5.350;2022-08-01T00:09:48;10.13;;;3.20;;
63965;SDS011;50151;52.030;5.350;2022-08-01T00:12:15;6.43;;;3.40;;
63965;SDS011;50151;52.030;5.350;2022-08-01T00:14:41;5.22;;;3.33;;
63965;SDS011;50151;52.030;5.350;2022-08-01T00:17:08;4.97;;;3.22;;
63965;SDS011;50151;52.030;5.350;2022-08-01T00:19:35;14.18;;;3.80;;
63965;SDS011;50151;52.030;5.350;2022-08-01T00:22:01;7.00;;;3.47;;
63965;SDS011;50151;52.030;5.350;2022-08-01T00:24:28;8.18;;;3.70;;
63965;SDS011;50151;52.030;5.350;2022-08-01T00:26:55;8.68;;;3.80;;
63965;SDS011;50151;52.030;5.350;2022-08-01T00:29:22;8.57;;;4.43;;
63965;SDS011;50151;52.030;5.350;2022-08-01T00:32:09;7.53;;;4.13;;
63965;SDS011;50151;52.030;5.350;2022-08-01T00:34:35;6.57;;;3.75;;
63965;SDS011;50151;52.030;5.350;2022-08-01T00:37:03;6.47;;;3.60;;
63965;SDS011;50151;52.030;5.350;2022-08-01T00:39:29;7.85;;;4.18;;
63965;SDS011;50151;52.030;5.350;2022-08-01T00:41:56;9.02;;;4.38;;
63965;SDS011;50151;52.030;5.350;2022-08-01T00:44:25;8.90;;;5.15;;
63965;SDS011;50151;52.030;5.350;2022-08-01T00:46:52;8.55;;;5.13;;
63965;SDS011;50151;52.030;5.350;2022-08-01T00:49:19;6.20;;;4.20;;
63965;SDS011;50151;52.030;5.350;2022-08-01T05:26:37;7.97;;;4.80;;
63965;SDS011;50151;52.030;5.350;2022-08-01T05:29:04;13.13;;;5.03;;
63965;SDS011;50151;52.030;5.350;2022-08-01T05:31:31;7.60;;;4.40;;
63965;SDS011;50151;52.030;5.350;2022-08-01T05:34:03;6.70;;;4.10;;
63965;SDS011;50151;52.030;5.350;2022-08-01T05:36:29;7.07;;;3.83;;
63965;SDS011;50151;52.030;5.350;2022-08-01T05:38:56;8.05;;;3.38;;
63965;SDS011;50151;52.030;5.350;2022-08-01T05:41:23;6.50;;;3.00;;
63965;SDS011;50151;52.030;5.350;2022-08-01T05:43:50;4.60;;;2.30;;
63965;SDS011;50151;52.030;5.350;2022-08-01T05:46:16;3.35;;;2.38;;
63965;SDS011;50151;52.030;5.350;2022-08-01T05:48:43;3.92;;;1.70;;
63965;SDS011;50151;52.030;5.350;2022-08-01T05:51:10;5.25;;;2.17;;
63965;SDS011;50151;52.030;5.350;2022-08-01T05:53:37;4.70;;;2.20;;
63965;SDS011;50151;52.030;5.350;2022-08-01T05:56:03;4.93;;;2.10;;
63965;SDS011;50151;52.030;5.350;2022-08-01T05:58:31;7.32;;;2.20;;
63965;SDS011;50151;52.030;5.350;2022-08-01T06:00:58;3.92;;;1.73;;
63965;SDS011;50151;52.030;5.350;2022-08-01T06:03:24;6.93;;;1.80;;
63965;SDS011;50151;52.030;5.350;2022-08-01T06:05:51;3.30;;;1.73;;
63965;SDS011;50151;52.030;5.350;2022-08-01T06:08:19;3.92;;;1.63;;
63965;SDS011;50151;52.030;5.350;2022-08-01T06:10:45;4.63;;;1.45;;
63965;SDS011;50151;52.030;5.350;2022-08-01T06:13:12;5.80;;;1.52;;
63965;SDS011;50151;52.030;5.350;2022-08-01T06:15:39;4.07;;;1.23;;
63965;SDS011;50151;52.030;5.350;2022-08-01T06:18:06;2.38;;;1.30;;
63965;SDS011;50151;52.030;5.350;2022-08-01T06:20:33;1.45;;;0.98;;
63965;SDS011;50151;52.030;5.350;2022-08-01T06:22:59;1.38;;;1.00;;
63965;SDS011;50151;52.030;5.350;2022-08-01T06:25:46;1.45;;;1.00;;
63965;SDS011;50151;52.030;5.350;2022-08-01T06:28:13;1.27;;;1.05;;
63965;SDS011;50151;52.030;5.350;2022-08-01T06:30:40;1.80;;;0.90;;
63965;SDS011;50151;52.030;5.350;2022-08-01T06:33:07;1.75;;;0.93;;
63965;SDS011;50151;52.030;5.350;2022-08-01T06:35:34;1.58;;;0.98;;
63965;SDS011;50151;52.030;5.350;2022-08-01T06:38:02;2.05;;;1.10;;
63965;SDS011;50151;52.030;5.350;2022-08-01T06:40:29;1.50;;;0.82;;
63965;SDS011;50151;52.030;5.350;2022-08-01T06:42:56;1.38;;;0.93;;
63965;SDS011;50151;52.030;5.350;2022-08-01T06:45:22;1.58;;;0.90;;
63965;SDS011;50151;52.030;5.350;2022-08-01T06:47:51;1.00;;;0.80;;
63965;SDS011;50151;52.030;5.350;2022-08-01T06:50:18;1.98;;;1.10;;
63965;SDS011;50151;52.030;5.350;2022-08-01T06:52:44;1.08;;;0.95;;
63965;SDS011;50151;52.030;5.350;2022-08-01T06:55:11;4.75;;;0.82;;
63965;SDS011;50151;52.030;5.350;2022-08-01T06:57:48;1.60;;;0.80;;
63965;SDS011;50151;52.030;5.350;2022-08-01T07:00:20;0.95;;;0.80;;
63965;SDS011;50151;52.030;5.350;2022-08-01T07:02:54;1.38;;;0.85;;
63965;SDS011;50151;52.030;5.350;2022-08-01T07:05:22;2.72;;;0.95;;
63965;SDS011;50151;52.030;5.350;2022-08-01T07:07:49;2.05;;;1.00;;
63965;SDS011;50151;52.030;5.350;2022-08-01T07:10:16;3.63;;;1.00;;
63965;SDS011;50151;52.030;5.350;2022-08-01T07:12:43;3.30;;;0.88;;
63965;SDS011;50151;52.030;5.350;2022-08-01T07:15:10;1.58;;;1.00;;
63965;SDS011;50151;52.030;5.350;2022-08-01T07:17:38;0.75;;;0.70;;
63965;SDS011;50151;52.030;5.350;2022-08-01T07:20:09;1.58;;;0.80;;
63965;SDS011;50151;52.030;5.350;2022-08-01T07:22:41;0.88;;;0.80;;
63965;SDS011;50151;52.030;5.350;2022-08-01T07:25:08;1.98;;;0.90;;
63965;SDS011;50151;52.030;5.350;2022-08-01T07:27:35;0.70;;;0.68;;
63965;SDS011;50151;52.030;5.350;2022-08-01T07:30:03;1.63;;;0.70;;
63965;SDS011;50151;52.030;5.350;2022-08-01T07:32:31;3.70;;;0.98;;
63965;SDS011;50151;52.030;5.350;2022-08-01T07:34:58;1.38;;;0.70;;
63965;SDS011;50151;52.030;5.350;2022-08-01T07:37:25;0.65;;;0.63;;
63965;SDS011;50151;52.030;5.350;2022-08-01T07:40:12;1.02;;;0.70;;
63965;SDS011;50151;52.030;5.350;2022-08-01T07:42:39;3.47;;;1.02;;
63965;SDS011;50151;52.030;5.350;2022-08-01T07:45:10;1.27;;;0.95;;
63965;SDS011;50151;52.030;5.350;2022-08-01T07:47:37;4.28;;;1.05;;
63965;SDS011;50151;52.030;5.350;2022-08-01T07:50:04;1.63;;;0.98;;
63965;SDS011;50151;52.030;5.350;2022-08-01T07:52:32;2.97;;;0.93;;
63965;SDS011;50151;52.030;5.350;2022-08-01T07:54:59;3.30;;;0.95;;
63965;SDS011;50151;52.030;5.350;2022-08-01T07:57:25;1.85;;;0.90;;
63965;SDS011;50151;52.030;5.350;2022-08-01T07:59:52;2.10;;;1.10;;
63965;SDS011;50151;52.030;5.350;2022-08-01T08:02:19;2.08;;;1.30;;
63965;SDS011;50151;52.030;5.350;2022-08-01T08:04:46;1.35;;;1.00;;
63965;SDS011;50151;52.030;5.350;2022-08-01T08:07:14;1.13;;;0.90;;
63965;SDS011;50151;52.030;5.350;2022-08-01T08:09:42;1.85;;;1.00;;
63965;SDS011;50151;52.030;5.350;2022-08-01T08:12:09;5.43;;;0.98;;
63965;SDS011;50151;52.030;5.350;2022-08-01T08:14:35;1.52;;;0.90;;
63965;SDS011;50151;52.030;5.350;2022-08-01T08:17:02;4.10;;;1.50;;
63965;SDS011;50151;52.030;5.350;2022-08-01T08:19:30;3.72;;;1.20;;
63965;SDS011;50151;52.030;5.350;2022-08-01T08:22:03;4.07;;;1.42;;
63965;SDS011;50151;52.030;5.350;2022-08-01T08:24:31;6.00;;;1.45;;
63965;SDS011;50151;52.030;5.350;2022-08-01T08:26:58;7.13;;;1.73;;
63965;SDS011;50151;52.030;5.350;2022-08-01T08:29:27;6.15;;;1.80;;
63965;SDS011;50151;52.030;5.350;2022-08-01T08:31:58;6.95;;;1.90;;
63965;SDS011;50151;52.030;5.350;2022-08-01T08:34:27;5.15;;;1.80;;
63965;SDS011;50151;52.030;5.350;2022-08-01T08:36:55;9.80;;;2.08;;
63965;SDS011;50151;52.030;5.350;2022-08-01T08:39:24;7.97;;;2.08;;
63965;SDS011;50151;52.030;5.350;2022-08-01T08:41:51;14.35;;;2.22;;
63965;SDS011;50151;52.030;5.350;2022-08-01T08:44:18;8.40;;;2.28;;
63965;SDS011;50151;52.030;5.350;2022-08-01T08:46:47;12.02;;;2.28;;
63965;SDS011;50151;52.030;5.350;2022-08-01T08:49:21;9.45;;;2.20;;
63965;SDS011;50151;52.030;5.350;2022-08-01T08:52:01;9.82;;;2.30;;
63965;SDS011;50151;52.030;5.350;2022-08-01T08:54:30;10.57;;;2.90;;
63965;SDS011;50151;52.030;5.350;2022-08-01T08:56:59;7.32;;;2.30;;
63965;SDS011;50151;52.030;5.350;2022-08-01T08:59:27;13.05;;;2.78;;
63965;SDS011;50151;52.030;5.350;2022-08-01T09:01:54;20.98;;;2.97;;
63965;SDS011;50151;52.030;5.350;2022-08-01T09:04:23;11.93;;;2.40;;
63965;SDS011;50151;52.030;5.350;2022-08-01T09:06:52;18.20;;;2.50;;
63965;SDS011;50151;52.030;5.350;2022-08-01T09:09:20;12.40;;;2.58;;
63965;SDS011;50151;52.030;5.350;2022-08-01T09:11:46;16.25;;;2.78;;
63965;SDS011;50151;52.030;5.350;2022-08-01T09:14:22;13.68;;;2.55;;
63965;SDS011;50151;52.030;5.350;2022-08-01T09:17:01;11.93;;;2.35;;
63965;SDS011;50151;52.030;5.350;2022-08-01T09:19:37;10.55;;;2.33;;
63965;SDS011;50151;52.030;5.350;2022-08-01T09:22:15;11.82;;;2.60;;
63965;SDS011;50151;52.030;5.350;2022-08-01T09:27:43;17.17;;;3.15;;
63965;SDS011;50151;52.030;5.350;2022-08-01T09:30:13;11.93;;;2.70;;
63965;SDS011;50151;52.030;5.350;2022-08-01T09:32:57;14.32;;;2.50;;
63965;SDS011;50151;52.030;5.350;2022-08-01T09:35:35;10.95;;;2.30;;
63965;SDS011;50151;52.030;5.350;2022-08-01T09:38:19;11.80;;;2.25;;
63965;SDS011;50151;52.030;5.350;2022-08-01T09:40:59;15.10;;;2.30;;
63965;SDS011;50151;52.030;5.350;2022-08-01T09:43:28;8.70;;;2.00;;
63965;SDS011;50151;52.030;5.350;2022-08-01T09:45:57;10.00;;;2.35;;
63965;SDS011;50151;52.030;5.350;2022-08-01T09:48:25;12.77;;;2.30;;
63965;SDS011;50151;52.030;5.350;2022-08-01T09:50:55;13.52;;;2.78;;
63965;SDS011;50151;52.030;5.350;2022-08-01T09:53:39;8.80;;;2.00;;
63965;SDS011;50151;52.030;5.350;2022-08-01T09:56:16;14.27;;;2.40;;
63965;SDS011;50151;52.030;5.350;2022-08-01T09:58:56;8.70;;;1.58;;
63965;SDS011;50151;52.030;5.350;2022-08-01T10:01:27;11.50;;;1.80;;
63965;SDS011;50151;52.030;5.350;2022-08-01T10:04:21;8.75;;;1.85;;
63965;SDS011;50151;52.030;5.350;2022-08-01T10:06:50;9.82;;;1.70;;
63965;SDS011;50151;52.030;5.350;2022-08-01T10:09:30;5.70;;;1.45;;
63965;SDS011;50151;52.030;5.350;2022-08-01T10:12:06;5.25;;;1.40;;
63965;SDS011;50151;52.030;5.350;2022-08-01T10:14:41;11.27;;;1.77;;
63965;SDS011;50151;52.030;5.350;2022-08-01T10:17:12;6.05;;;1.58;;
63965;SDS011;50151;52.030;5.350;2022-08-01T10:19:44;11.52;;;1.65;;
63965;SDS011;50151;52.030;5.350;2022-08-01T10:22:13;12.40;;;2.15;;
63965;SDS011;50151;52.030;5.350;2022-08-01T10:24:46;11.23;;;2.28;;
63965;SDS011;50151;52.030;5.350;2022-08-01T10:27:15;11.57;;;1.90;;
63965;SDS011;50151;52.030;5.350;2022-08-01T10:30:03;8.13;;;1.80;;
63965;SDS011;50151;52.030;5.350;2022-08-01T10:32:48;8.40;;;1.83;;
63965;SDS011;50151;52.030;5.350;2022-08-01T10:35:18;10.65;;;2.05;;
63965;SDS011;50151;52.030;5.350;2022-08-01T10:38:05;7.40;;;1.88;;
63965;SDS011;50151;52.030;5.350;2022-08-01T10:40:39;17.88;;;2.20;;
63965;SDS011;50151;52.030;5.350;2022-08-01T10:43:08;9.45;;;1.92;;
63965;SDS011;50151;52.030;5.350;2022-08-01T10:45:36;7.50;;;1.63;;
63965;SDS011;50151;52.030;5.350;2022-08-01T10:48:12;9.88;;;1.80;;
63965;SDS011;50151;52.030;5.350;2022-08-01T10:50:47;5.25;;;1.60;;
63965;SDS011;50151;52.030;5.350;2022-08-01T10:53:17;8.32;;;1.52;;
63965;SDS011;50151;52.030;5.350;2022-08-01T11:01:26;12.30;;;1.83;;
63965;SDS011;50151;52.030;5.350;2022-08-01T11:04:13;6.30;;;1.65;;
63965;SDS011;50151;52.030;5.350;2022-08-01T11:06:48;5.45;;;1.38;;
63965;SDS011;50151;52.030;5.350;2022-08-01T11:09:42;11.32;;;1.30;;
63965;SDS011;50151;52.030;5.350;2022-08-01T11:12:17;3.97;;;1.33;;
63965;SDS011;50151;52.030;5.350;2022-08-01T11:20:23;5.28;;;1.30;;
63965;SDS011;50151;52.030;5.350;2022-08-01T11:28:24;6.88;;;1.45;;
63965;SDS011;50151;52.030;5.350;2022-08-01T11:52:30;15.20;;;2.33;;
63965;SDS011;50151;52.030;5.350;2022-08-01T11:57:36;9.23;;;1.60;;
63965;SDS011;50151;52.030;5.350;2022-08-01T12:00:10;13.55;;;1.90;;
63965;SDS011;50151;52.030;5.350;2022-08-01T12:02:44;8.45;;;1.67;;
63965;SDS011;50151;52.030;5.350;2022-08-01T12:05:13;10.60;;;1.80;;
63965;SDS011;50151;52.030;5.350;2022-08-01T12:07:44;10.38;;;1.80;;
63965;SDS011;50151;52.030;5.350;2022-08-01T12:10:16;9.38;;;1.73;;
63965;SDS011;50151;52.030;5.350;2022-08-01T12:12:45;9.38;;;2.08;;
63965;SDS011;50151;52.030;5.350;2022-08-01T12:15:15;7.18;;;1.67;;
63965;SDS011;50151;52.030;5.350;2022-08-01T12:17:44;8.68;;;1.42;;
63965;SDS011;50151;52.030;5.350;2022-08-01T12:20:24;7.10;;;1.40;;
63965;SDS011;50151;52.030;5.350;2022-08-01T12:22:57;8.20;;;1.50;;
63965;SDS011;50151;52.030;5.350;2022-08-01T12:25:26;10.60;;;1.90;;
63965;SDS011;50151;52.030;5.350;2022-08-01T12:27:53;7.10;;;1.20;;
63965;SDS011;50151;52.030;5.350;2022-08-01T12:30:22;6.75;;;1.10;;
63965;SDS011;50151;52.030;5.350;2022-08-01T12:32:51;6.05;;;1.48;;
63965;SDS011;50151;52.030;5.350;2022-08-01T12:35:22;4.80;;;1.30;;
63965;SDS011;50151;52.030;5.350;2022-08-01T12:37:55;8.38;;;1.50;;
63965;SDS011;50151;52.030;5.350;2022-08-01T12:40:28;8.13;;;1.40;;
63965;SDS011;50151;52.030;5.350;2022-08-01T12:42:57;7.40;;;1.27;;
63965;SDS011;50151;52.030;5.350;2022-08-01T12:45:30;3.60;;;1.17;;
63965;SDS011;50151;52.030;5.350;2022-08-01T12:48:22;3.30;;;1.00;;
63965;SDS011;50151;52.030;5.350;2022-08-01T12:50:50;7.35;;;1.05;;
63965;SDS011;50151;52.030;5.350;2022-08-01T12:53:19;4.82;;;1.13;;
63965;SDS011;50151;52.030;5.350;2022-08-01T12:55:48;3.35;;;0.80;;
63965;SDS011;50151;52.030;5.350;2022-08-01T12:58:31;6.28;;;1.30;;
63965;SDS011;50151;52.030;5.350;2022-08-01T13:01:06;2.15;;;0.70;;
63965;SDS011;50151;52.030;5.350;2022-08-01T13:03:35;6.30;;;0.90;;
63965;SDS011;50151;52.030;5.350;2022-08-01T13:06:09;4.75;;;0.93;;
63965;SDS011;50151;52.030;5.350;2022-08-01T13:08:42;2.58;;;0.80;;
63965;SDS011;50151;52.030;5.350;2022-08-01T13:11:11;5.00;;;0.70;;
63965;SDS011;50151;52.030;5.350;2022-08-01T13:13:44;3.88;;;0.90;;
63965;SDS011;50151;52.030;5.350;2022-08-01T13:16:18;2.90;;;0.85;;
63965;SDS011;50151;52.030;5.350;2022-08-01T13:19:03;3.92;;;0.60;;
63965;SDS011;50151;52.030;5.350;2022-08-01T13:21:31;2.95;;;0.73;;
63965;SDS011;50151;52.030;5.350;2022-08-01T13:24:22;3.88;;;0.82;;
63965;SDS011;50151;52.030;5.350;2022-08-01T13:29:28;2.47;;;0.68;;
63965;SDS011;50151;52.030;5.350;2022-08-01T13:31:58;4.00;;;0.80;;
63965;SDS011;50151;52.030;5.350;2022-08-01T13:34:29;3.80;;;1.00;;
63965;SDS011;50151;52.030;5.350;2022-08-01T13:37:00;1.92;;;0.90;;
63965;SDS011;50151;52.030;5.350;2022-08-01T13:39:30;4.60;;;1.00;;
63965;SDS011;50151;52.030;5.350;2022-08-01T13:42:07;2.83;;;0.50;;
63965;SDS011;50151;52.030;5.350;2022-08-01T13:44:35;3.70;;;0.80;;
63965;SDS011;50151;52.030;5.350;2022-08-01T13:47:02;2.80;;;0.80;;
63965;SDS011;50151;52.030;5.350;2022-08-01T13:49:41;4.88;;;0.93;;
63965;SDS011;50151;52.030;5.350;2022-08-01T13:52:08;4.00;;;0.70;;
63965;SDS011;50151;52.030;5.350;2022-08-01T13:54:36;6.93;;;0.80;;
63965;SDS011;50151;52.030;5.350;2022-08-01T13:57:03;6.00;;;1.02;;
63965;SDS011;50151;52.030;5.350;2022-08-01T13:59:30;2.75;;;0.93;;
63965;SDS011;50151;52.030;5.350;2022-08-01T14:01:57;1.40;;;0.80;;
63965;SDS011;50151;52.030;5.350;2022-08-01T14:04:24;2.67;;;0.80;;
63965;SDS011;50151;52.030;5.350;2022-08-01T14:06:51;5.18;;;1.33;;
63965;SDS011;50151;52.030;5.350;2022-08-01T14:09:18;4.38;;;0.90;;
63965;SDS011;50151;52.030;5.350;2022-08-01T14:11:49;2.70;;;0.80;;
63965;SDS011;50151;52.030;5.350;2022-08-01T14:14:16;3.10;;;0.73;;
63965;SDS011;50151;52.030;5.350;2022-08-01T14:16:43;3.20;;;0.85;;
63965;SDS011;50151;52.030;5.350;2022-08-01T14:19:13;2.92;;;0.80;;
63965;SDS011;50151;52.030;5.350;2022-08-01T14:21:44;4.57;;;1.08;;
63965;SDS011;50151;52.030;5.350;2022-08-01T14:24:11;3.17;;;0.80;;
63965;SDS011;50151;52.030;5.350;2022-08-01T14:26:39;3.65;;;0.90;;
63965;SDS011;50151;52.030;5.350;2022-08-01T14:29:06;6.03;;;1.10;;
63965;SDS011;50151;52.030;5.350;2022-08-01T14:31:33;3.20;;;0.70;;
63965;SDS011;50151;52.030;5.350;2022-08-01T14:34:00;3.80;;;0.80;;
63965;SDS011;50151;52.030;5.350;2022-08-01T14:36:27;1.60;;;0.70;;
63965;SDS011;50151;52.030;5.350;2022-08-01T14:39:03;3.30;;;0.65;;
63965;SDS011;50151;52.030;5.350;2022-08-01T14:41:31;1.17;;;0.38;;
63965;SDS011;50151;52.030;5.350;2022-08-01T14:43:58;1.77;;;0.70;;
63965;SDS011;50151;52.030;5.350;2022-08-01T14:46:26;3.78;;;0.70;;
63965;SDS011;50151;52.030;5.350;2022-08-01T14:48:59;3.65;;;0.65;;
63965;SDS011;50151;52.030;5.350;2022-08-01T14:51:26;2.08;;;0.57;;
63965;SDS011;50151;52.030;5.350;2022-08-01T14:53:53;3.97;;;0.60;;
63965;SDS011;50151;52.030;5.350;2022-08-01T14:56:20;4.00;;;0.60;;
63965;SDS011;50151;52.030;5.350;2022-08-01T14:58:47;0.93;;;0.38;;
63965;SDS011;50151;52.030;5.350;2022-08-01T15:01:14;4.25;;;0.77;;
63965;SDS011;50151;52.030;5.350;2022-08-01T15:03:42;7.18;;;0.70;;
63965;SDS011;50151;52.030;5.350;2022-08-01T15:06:09;3.13;;;0.60;;
63965;SDS011;50151;52.030;5.350;2022-08-01T15:08:37;2.00;;;0.65;;
63965;SDS011;50151;52.030;5.350;2022-08-01T15:11:05;3.53;;;0.98;;
63965;SDS011;50151;52.030;5.350;2022-08-01T15:13:32;5.18;;;0.85;;
63965;SDS011;50151;52.030;5.350;2022-08-01T15:16:03;3.25;;;0.50;;
63965;SDS011;50151;52.030;5.350;2022-08-01T15:18:30;3.00;;;1.05;;
63965;SDS011;50151;52.030;5.350;2022-08-01T15:20:59;2.42;;;0.70;;
63965;SDS011;50151;52.030;5.350;2022-08-01T15:23:26;2.40;;;0.80;;
63965;SDS011;50151;52.030;5.350;2022-08-01T15:25:53;1.50;;;0.45;;
63965;SDS011;50151;52.030;5.350;2022-08-01T15:28:20;5.63;;;0.75;;
63965;SDS011;50151;52.030;5.350;2022-08-01T15:30:47;4.60;;;0.70;;
63965;SDS011;50151;52.030;5.350;2022-08-01T15:33:14;4.32;;;0.52;;
63965;SDS011;50151;52.030;5.350;2022-08-01T15:35:41;4.10;;;0.85;;
63965;SDS011;50151;52.030;5.350;2022-08-01T15:38:08;2.80;;;0.80;;
63965;SDS011;50151;52.030;5.350;2022-08-01T15:40:35;1.65;;;0.60;;
63965;SDS011;50151;52.030;5.350;2022-08-01T15:43:02;4.85;;;0.60;;
63965;SDS011;50151;52.030;5.350;2022-08-01T15:45:29;2.65;;;0.85;;
63965;SDS011;50151;52.030;5.350;2022-08-01T15:48:12;1.92;;;0.50;;
63965;SDS011;50151;52.030;5.350;2022-08-01T15:50:40;3.88;;;1.25;;
63965;SDS011;50151;52.030;5.350;2022-08-01T15:53:07;3.55;;;0.95;;
63965;SDS011;50151;52.030;5.350;2022-08-01T15:55:37;4.15;;;0.70;;
63965;SDS011;50151;52.030;5.350;2022-08-01T15:58:05;4.50;;;0.70;;
63965;SDS011;50151;52.030;5.350;2022-08-01T16:00:33;5.03;;;0.60;;
63965;SDS011;50151;52.030;5.350;2022-08-01T16:03:04;1.83;;;0.40;;
63965;SDS011;50151;52.030;5.350;2022-08-01T16:05:32;1.83;;;0.60;;
63965;SDS011;50151;52.030;5.350;2022-08-01T16:08:08;2.30;;;0.55;;
63965;SDS011;50151;52.030;5.350;2022-08-01T16:10:36;1.48;;;0.52;;
63965;SDS011;50151;52.030;5.350;2022-08-01T16:13:03;1.17;;;0.40;;
63965;SDS011;50151;52.030;5.350;2022-08-01T16:15:33;3.75;;;0.88;;
63965;SDS011;50151;52.030;5.350;2022-08-01T16:18:03;1.80;;;0.50;;
63965;SDS011;50151;52.030;5.350;2022-08-01T16:20:31;1.52;;;0.60;;
63965;SDS011;50151;52.030;5.350;2022-08-01T16:22:58;0.75;;;0.57;;
63965;SDS011;50151;52.030;5.350;2022-08-01T16:25:25;4.30;;;0.52;;
63965;SDS011;50151;52.030;5.350;2022-08-01T16:27:52;2.70;;;0.75;;
63965;SDS011;50151;52.030;5.350;2022-08-01T16:30:19;2.35;;;0.80;;
63965;SDS011;50151;52.030;5.350;2022-08-01T16:32:46;2.78;;;0.60;;
63965;SDS011;50151;52.030;5.350;2022-08-01T16:35:33;2.33;;;0.68;;
63965;SDS011;50151;52.030;5.350;2022-08-01T16:38:01;2.53;;;0.75;;
63965;SDS011;50151;52.030;5.350;2022-08-01T16:40:32;2.88;;;0.70;;
63965;SDS011;50151;52.030;5.350;2022-08-01T16:43:12;1.55;;;0.80;;
63965;SDS011;50151;52.030;5.350;2022-08-01T16:45:40;2.80;;;0.70;;
63965;SDS011;50151;52.030;5.350;2022-08-01T16:48:09;3.83;;;0.70;;
63965;SDS011;50151;52.030;5.350;2022-08-01T16:50:37;3.20;;;0.70;;
63965;SDS011;50151;52.030;5.350;2022-08-01T16:53:04;3.80;;;0.50;;
63965;SDS011;50151;52.030;5.350;2022-08-01T16:55:31;5.28;;;0.52;;
63965;SDS011;50151;52.030;5.350;2022-08-01T16:58:16;6.82;;;0.73;;
63965;SDS011;50151;52.030;5.350;2022-08-01T17:00:52;2.17;;;0.52;;
63965;SDS011;50151;52.030;5.350;2022-08-01T17:03:22;3.55;;;0.80;;
63965;SDS011;50151;52.030;5.350;2022-08-01T17:06:10;3.75;;;0.88;;
63965;SDS011;50151;52.030;5.350;2022-08-01T17:08:37;2.58;;;0.68;;
63965;SDS011;50151;52.030;5.350;2022-08-01T17:11:12;4.72;;;1.17;;
63965;SDS011;50151;52.030;5.350;2022-08-01T17:13:39;2.10;;;0.60;;
63965;SDS011;50151;52.030;5.350;2022-08-01T17:16:07;5.03;;;1.25;;
63965;SDS011;50151;52.030;5.350;2022-08-01T17:18:34;5.20;;;0.90;;
63965;SDS011;50151;52.030;5.350;2022-08-01T17:21:01;4.10;;;1.10;;
63965;SDS011;50151;52.030;5.350;2022-08-01T17:23:28;2.45;;;0.60;;
63965;SDS011;50151;52.030;5.350;2022-08-01T17:25:57;3.78;;;0.60;;
63965;SDS011;50151;52.030;5.350;2022-08-01T17:28:25;7.72;;;0.90;;
63965;SDS011;50151;52.030;5.350;2022-08-01T17:30:52;6.55;;;1.10;;
63965;SDS011;50151;52.030;5.350;2022-08-01T17:33:19;1.75;;;0.57;;
63965;SDS011;50151;52.030;5.350;2022-08-01T17:35:46;3.13;;;0.75;;
63965;SDS011;50151;52.030;5.350;2022-08-01T17:38:13;3.35;;;0.77;;
63965;SDS011;50151;52.030;5.350;2022-08-01T17:40:42;5.03;;;1.30;;
63965;SDS011;50151;52.030;5.350;2022-08-01T17:43:09;3.00;;;0.75;;
63965;SDS011;50151;52.030;5.350;2022-08-01T17:45:36;3.72;;;0.85;;
63965;SDS011;50151;52.030;5.350;2022-08-01T17:48:16;1.88;;;0.57;;
63965;SDS011;50151;52.030;5.350;2022-08-01T17:50:45;7.63;;;1.10;;
63965;SDS011;50151;52.030;5.350;2022-08-01T17:53:13;3.08;;;0.77;;
63965;SDS011;50151;52.030;5.350;2022-08-01T17:55:46;7.45;;;1.00;;
63965;SDS011;50151;52.030;5.350;2022-08-01T17:58:23;3.08;;;0.65;;
63965;SDS011;50151;52.030;5.350;2022-08-01T18:01:11;3.03;;;0.77;;
63965;SDS011;50151;52.030;5.350;2022-08-01T18:03:39;3.38;;;0.70;;
63965;SDS011;50151;52.030;5.350;2022-08-01T18:06:10;3.92;;;0.65;;
63965;SDS011;50151;52.030;5.350;2022-08-01T18:08:40;4.25;;;1.17;;
63965;SDS011;50151;52.030;5.350;2022-08-01T18:11:08;2.40;;;0.65;;
63965;SDS011;50151;52.030;5.350;2022-08-01T18:13:35;5.03;;;0.68;;
63965;SDS011;50151;52.030;5.350;2022-08-01T18:16:06;3.42;;;0.77;;
63965;SDS011;50151;52.030;5.350;2022-08-01T18:18:34;5.25;;;0.90;;
63965;SDS011;50151;52.030;5.350;2022-08-01T18:21:02;6.80;;;0.80;;
63965;SDS011;50151;52.030;5.350;2022-08-01T18:23:30;4.22;;;0.80;;
63965;SDS011;50151;52.030;5.350;2022-08-01T18:25:59;2.53;;;0.95;;
63965;SDS011;50151;52.030;5.350;2022-08-01T18:28:30;2.47;;;0.70;;
63965;SDS011;50151;52.030;5.350;2022-08-01T18:31:06;3.28;;;0.73;;
63965;SDS011;50151;52.030;5.350;2022-08-01T18:33:34;5.03;;;1.10;;
63965;SDS011;50151;52.030;5.350;2022-08-01T18:36:02;2.22;;;0.70;;
63965;SDS011;50151;52.030;5.350;2022-08-01T18:38:32;2.83;;;0.70;;
63965;SDS011;50151;52.030;5.350;2022-08-01T18:41:04;4.40;;;0.70;;
63965;SDS011;50151;52.030;5.350;2022-08-01T18:43:31;3.95;;;0.77;;
63965;SDS011;50151;52.030;5.350;2022-08-01T18:45:57;5.13;;;0.95;;
63965;SDS011;50151;52.030;5.350;2022-08-01T18:48:26;3.72;;;0.70;;
63965;SDS011;50151;52.030;5.350;2022-08-01T18:50:53;4.07;;;0.70;;
63965;SDS011;50151;52.030;5.350;2022-08-01T18:53:20;2.30;;;0.70;;
63965;SDS011;50151;52.030;5.350;2022-08-01T18:55:49;2.75;;;0.90;;
63965;SDS011;50151;52.030;5.350;2022-08-01T18:58:16;4.00;;;0.90;;
63965;SDS011;50151;52.030;5.350;2022-08-01T19:00:43;5.60;;;0.93;;
63965;SDS011;50151;52.030;5.350;2022-08-01T19:03:10;3.92;;;0.80;;
63965;SDS011;50151;52.030;5.350;2022-08-01T19:05:38;1.50;;;0.60;;
63965;SDS011;50151;52.030;5.350;2022-08-01T19:08:05;1.83;;;0.77;;
63965;SDS011;50151;52.030;5.350;2022-08-01T19:10:37;2.08;;;0.80;;
63965;SDS011;50151;52.030;5.350;2022-08-01T19:13:05;3.10;;;0.90;;
63965;SDS011;50151;52.030;5.350;2022-08-01T19:15:33;6.15;;;1.10;;
63965;SDS011;50151;52.030;5.350;2022-08-01T19:18:00;4.53;;;1.00;;
63965;SDS011;50151;52.030;5.350;2022-08-01T19:20:28;3.33;;;1.00;;
63965;SDS011;50151;52.030;5.350;2022-08-01T19:22:55;2.65;;;0.85;;
63965;SDS011;50151;52.030;5.350;2022-08-01T19:25:22;2.72;;;0.80;;
63965;SDS011;50151;52.030;5.350;2022-08-01T19:27:49;3.67;;;0.70;;
63965;SDS011;50151;52.030;5.350;2022-08-01T19:30:16;4.10;;;0.80;;
63965;SDS011;50151;52.030;5.350;2022-08-01T19:32:44;4.00;;;0.95;;
63965;SDS011;50151;52.030;5.350;2022-08-01T19:35:13;2.58;;;0.65;;
63965;SDS011;50151;52.030;5.350;2022-08-01T19:37:42;5.25;;;1.02;;
63965;SDS011;50151;52.030;5.350;2022-08-01T19:40:12;2.63;;;0.85;;
63965;SDS011;50151;52.030;5.350;2022-08-01T19:42:53;3.25;;;0.90;;
63965;SDS011;50151;52.030;5.350;2022-08-01T19:45:22;2.67;;;0.70;;
63965;SDS011;50151;52.030;5.350;2022-08-01T19:47:50;2.53;;;0.70;;
63965;SDS011;50151;52.030;5.350;2022-08-01T19:50:22;5.10;;;0.60;;
63965;SDS011;50151;52.030;5.350;2022-08-01T19:52:49;4.07;;;0.90;;
63965;SDS011;50151;52.030;5.350;2022-08-01T19:55:17;3.05;;;0.85;;
63965;SDS011;50151;52.030;5.350;2022-08-01T19:57:45;4.32;;;1.02;;
63965;SDS011;50151;52.030;5.350;2022-08-01T20:00:35;4.15;;;0.80;;
63965;SDS011;50151;52.030;5.350;2022-08-01T20:03:04;2.67;;;1.00;;
63965;SDS011;50151;52.030;5.350;2022-08-01T20:05:32;3.33;;;1.00;;
63965;SDS011;50151;52.030;5.350;2022-08-01T20:08:01;3.47;;;0.77;;
63965;SDS011;50151;52.030;5.350;2022-08-01T20:10:29;7.88;;;0.95;;
63965;SDS011;50151;52.030;5.350;2022-08-01T20:12:57;6.55;;;1.20;;
63965;SDS011;50151;52.030;5.350;2022-08-01T20:15:24;3.20;;;1.10;;
63965;SDS011;50151;52.030;5.350;2022-08-01T20:17:50;7.53;;;1.10;;
63965;SDS011;50151;52.030;5.350;2022-08-01T20:20:17;2.40;;;0.80;;
63965;SDS011;50151;52.030;5.350;2022-08-01T20:22:44;2.45;;;0.88;;
63965;SDS011;50151;52.030;5.350;2022-08-01T20:25:14;5.80;;;0.98;;